Grindsted, Denmark
Current Conditions -  °F | °C
As of 3:50 PM on Friday 19 Dec 2014 (Local Time) from EKBI Reporting Station
Broken Clouds Broken Clouds  
Wind Chill: 34°   Ceiling: 2500
Heat Index: 43°   Visibility: 6mi
Dew Point: 36°   Wind: 21mph
Humidity: 76%   Direction: 270°W
Pressure: 29.47"   Gusts: NA
Location:  55.75°N, 8.91°E
Report Text: EKBI 191450Z 27018KT 9999 FEW018 BKN025CB 06/02 Q0998
Loading
Personal Weather Stations






























Interactive Weather Map New forecast layout! Learn more

10-Day Weather Forecast

Advertisements
Track Severe Weather on mobile